Saint-Vith, Belgium
Current Conditions -  °F | °C
As of 5:03 PM on Saturday 25 Oct 2014 (Local Time) from EBLB Reporting Station
Overcast Overcast  
Wind Chill: 52°   Ceiling: 400
Heat Index: 52°   Visibility: 1.3mi
Dew Point: 50°   Wind: 3mph
Humidity: 94%   Direction: 220°SW
Pressure: 30.15"   Gusts: NA
Location:  50.28°N, 6.13°E
Report Text: EBLB 251503Z AUTO 22003KT 2100 SCT002/// BKN004/// OVC007/// 11/10 Q1021 AMB
Loading
Personal Weather Stations






























Interactive Weather Map
Tropical Storm Tracking
New forecast layout! Learn more

10-Day Weather Forecast

Advertisements
Track Severe Weather on mobile